createdAt,value
2022-08-18T00:01:05.820Z,10.73
2022-08-18T00:03:55.640Z,10.77
2022-08-18T00:06:20.586Z,10.82
2022-08-18T00:08:47.216Z,10.57
2022-08-18T00:11:14.070Z,10.77
2022-08-18T00:13:40.612Z,10.52
2022-08-18T00:16:07.255Z,11.90
2022-08-18T00:18:33.847Z,16.00
2022-08-18T00:21:02.250Z,12.05
2022-08-18T00:23:32.593Z,15.10
2022-08-18T00:25:59.573Z,11.40
2022-08-18T00:28:26.318Z,12.10
2022-08-18T00:30:54.142Z,12.50
2022-08-18T00:33:21.819Z,12.75
2022-08-18T00:35:49.111Z,11.52
2022-08-18T00:38:24.543Z,11.70
2022-08-18T00:40:54.181Z,12.68
2022-08-18T00:43:32.486Z,12.40
2022-08-18T00:45:59.312Z,12.10
2022-08-18T00:48:26.062Z,13.18
2022-08-18T00:50:59.962Z,12.35
2022-08-18T00:53:35.721Z,12.77
2022-08-18T00:56:11.696Z,14.40
2022-08-18T00:58:44.385Z,12.30
2022-08-18T01:01:12.879Z,12.40
2022-08-18T01:03:42.068Z,12.15
2022-08-18T01:06:26.718Z,10.90
2022-08-18T01:08:54.405Z,14.70
2022-08-18T01:11:20.998Z,13.40
2022-08-18T01:13:47.623Z,12.23
2022-08-18T01:16:32.477Z,12.13
2022-08-18T01:19:17.604Z,12.00
2022-08-18T01:21:50.921Z,14.35
2022-08-18T01:24:22.179Z,11.48
2022-08-18T01:26:52.302Z,12.07
2022-08-18T01:29:20.138Z,11.87
2022-08-18T01:31:56.208Z,11.70
2022-08-18T01:34:26.387Z,13.15
2022-08-18T01:36:55.221Z,12.15
2022-08-18T01:41:23.806Z,12.32
2022-08-18T01:42:11.091Z,11.57
2022-08-18T01:44:41.727Z,11.45
2022-08-18T01:47:10.739Z,15.00
2022-08-18T01:49:38.662Z,12.20
2022-08-18T01:52:07.270Z,14.75
2022-08-18T01:54:33.942Z,11.10
2022-08-18T01:57:01.991Z,12.10
2022-08-18T01:59:28.613Z,12.75
2022-08-18T02:01:56.347Z,12.68
2022-08-18T02:04:37.313Z,12.50
2022-08-18T02:07:07.782Z,12.35
2022-08-18T02:09:37.349Z,13.30
2022-08-18T02:12:05.926Z,12.73
2022-08-18T02:14:33.545Z,12.27
2022-08-18T02:17:02.890Z,11.75
2022-08-18T02:19:35.542Z,11.43
2022-08-18T02:22:02.858Z,11.18
2022-08-18T02:24:29.452Z,10.88
2022-08-18T02:26:56.930Z,11.32
2022-08-18T02:29:23.713Z,12.25
2022-08-18T02:31:50.597Z,11.55
2022-08-18T02:34:17.814Z,10.47
2022-08-18T02:36:44.438Z,11.05
2022-08-18T02:39:11.085Z,10.57
2022-08-18T02:41:37.676Z,11.57
2022-08-18T02:44:07.552Z,13.30
2022-08-18T02:46:34.183Z,12.52
2022-08-18T02:49:01.192Z,12.65
2022-08-18T02:51:28.437Z,11.82
2022-08-18T02:53:55.331Z,12.25
2022-08-18T02:56:33.742Z,11.63
2022-08-18T02:59:11.270Z,11.25
2022-08-18T03:01:40.412Z,11.05
2022-08-18T03:04:09.252Z,10.30
2022-08-18T03:06:37.378Z,10.93
2022-08-18T03:09:06.082Z,11.50
2022-08-18T03:11:32.922Z,9.98
2022-08-18T03:14:00.597Z,10.73
2022-08-18T03:16:27.762Z,11.32
2022-08-18T03:18:54.583Z,10.70
2022-08-18T03:21:23.691Z,20.48
2022-08-18T03:24:01.542Z,11.45
2022-08-18T03:26:30.713Z,10.65
2022-08-18T03:28:59.950Z,12.10
2022-08-18T03:31:30.087Z,10.57
2022-08-18T03:33:59.827Z,10.57
2022-08-18T03:36:31.957Z,10.90
2022-08-18T03:39:01.773Z,10.93
2022-08-18T03:41:56.960Z,11.68
2022-08-18T03:44:17.908Z,10.98
2022-08-18T03:46:44.942Z,11.40
2022-08-18T03:49:12.155Z,12.30
2022-08-18T03:51:47.623Z,11.02
2022-08-18T03:54:16.715Z,10.65
2022-08-18T03:56:45.066Z,10.88
2022-08-18T03:59:19.744Z,11.90
2022-08-18T04:01:48.771Z,11.02
2022-08-18T04:04:19.276Z,11.35
2022-08-18T04:06:52.093Z,11.02
2022-08-18T04:09:20.910Z,10.77
2022-08-18T04:11:49.017Z,11.15
2022-08-18T04:14:18.985Z,11.80
2022-08-18T04:16:46.526Z,10.25
2022-08-18T04:19:14.228Z,10.05
2022-08-18T04:21:53.917Z,10.57
2022-08-18T04:24:20.881Z,10.57
2022-08-18T04:26:48.798Z,11.57
2022-08-18T04:29:18.512Z,12.25
2022-08-18T04:31:45.277Z,11.13
2022-08-18T04:34:13.781Z,11.45
2022-08-18T04:36:41.575Z,10.65
2022-08-18T04:39:10.304Z,11.32
2022-08-18T04:41:38.456Z,11.23
2022-08-18T04:44:07.400Z,9.90
2022-08-18T04:46:41.390Z,10.73
2022-08-18T04:49:09.467Z,10.15
2022-08-18T04:52:30.727Z,11.13
2022-08-18T04:54:25.049Z,13.25
2022-08-18T04:56:51.958Z,12.07
2022-08-18T04:59:19.152Z,12.10
2022-08-18T05:01:47.659Z,10.85
2022-08-18T05:04:16.609Z,10.90
2022-08-18T05:06:45.731Z,14.90
2022-08-18T05:09:16.289Z,12.40
2022-08-18T05:11:44.625Z,12.02
2022-08-18T05:14:12.349Z,13.13
2022-08-18T05:16:47.841Z,14.38
2022-08-18T05:19:19.443Z,12.05
2022-08-18T05:21:48.965Z,13.30
2022-08-18T05:24:19.002Z,11.63
2022-08-18T05:26:46.141Z,13.25
2022-08-18T05:29:18.521Z,12.38
2022-08-18T05:31:47.420Z,10.93
2022-08-18T05:34:14.039Z,9.57
2022-08-18T05:36:49.413Z,11.93
2022-08-18T05:39:19.204Z,12.00
2022-08-18T05:42:11.360Z,12.38
2022-08-18T05:44:44.457Z,13.20
2022-08-18T05:47:24.110Z,15.13
2022-08-18T05:49:52.505Z,12.77
2022-08-18T05:52:26.061Z,11.95
2022-08-18T05:55:17.880Z,10.85
2022-08-18T05:57:51.687Z,11.07
2022-08-18T06:00:21.252Z,10.02
2022-08-18T06:03:03.058Z,11.40
2022-08-18T06:05:40.261Z,11.18
2022-08-18T06:08:13.621Z,17.07
2022-08-18T06:10:44.645Z,9.20
2022-08-18T06:13:11.794Z,8.90
2022-08-18T06:16:14.253Z,10.75
2022-08-18T06:18:57.409Z,11.70
2022-08-18T06:21:39.164Z,10.37
2022-08-18T06:24:27.535Z,8.65
2022-08-18T06:27:31.456Z,12.77
2022-08-18T06:30:09.307Z,10.57
2022-08-18T06:33:01.106Z,8.90
2022-08-18T06:35:41.145Z,11.13
2022-08-18T06:38:38.555Z,7.38
2022-08-18T06:41:43.303Z,6.80
2022-08-18T06:44:20.772Z,7.78
2022-08-18T06:46:47.155Z,10.70
2022-08-18T06:49:59.435Z,6.90
2022-08-18T06:52:29.204Z,6.55
2022-08-18T06:55:00.725Z,6.75
2022-08-18T06:57:30.491Z,8.25
2022-08-18T07:00:01.718Z,7.15
2022-08-18T07:02:40.461Z,9.33
2022-08-18T07:05:15.883Z,8.43
2022-08-18T07:07:43.380Z,6.05
2022-08-18T07:10:16.030Z,8.63
2022-08-18T07:12:42.860Z,9.05
2022-08-18T07:15:13.004Z,6.43
2022-08-18T07:17:43.217Z,8.10
2022-08-18T07:20:25.394Z,6.80
2022-08-18T07:23:00.887Z,6.20
2022-08-18T07:25:32.313Z,6.57
2022-08-18T07:28:01.843Z,6.23
2022-08-18T07:30:32.904Z,7.32
2022-08-18T07:33:19.083Z,9.60
2022-08-18T07:35:54.757Z,8.35
2022-08-18T07:38:42.602Z,5.95
2022-08-18T07:41:26.244Z,6.57
2022-08-18T07:44:18.784Z,6.07
2022-08-18T07:47:06.926Z,6.53
2022-08-18T07:49:37.037Z,5.57
2022-08-18T07:52:36.378Z,7.18
2022-08-18T07:55:19.158Z,9.10
2022-08-18T07:58:00.445Z,4.50
2022-08-18T08:00:58.151Z,5.25
2022-08-18T08:03:44.929Z,8.20
2022-08-18T08:07:22.905Z,5.53
2022-08-18T08:10:15.381Z,6.73
2022-08-18T08:13:08.906Z,4.80
2022-08-18T08:15:54.958Z,4.82
2022-08-18T08:18:54.021Z,5.07
2022-08-18T08:21:24.450Z,8.05
2022-08-18T08:24:10.328Z,6.17
2022-08-18T08:26:45.176Z,4.10
2022-08-18T08:29:33.201Z,4.93
2022-08-18T08:32:18.224Z,7.78
2022-08-18T08:34:54.502Z,3.63
2022-08-18T08:37:37.775Z,3.37
2022-08-18T08:40:18.178Z,3.70
2022-08-18T08:42:58.479Z,3.67
2022-08-18T08:45:32.429Z,3.90
2022-08-18T08:48:19.795Z,3.67
2022-08-18T08:51:03.956Z,3.87
2022-08-18T08:53:38.590Z,4.50
2022-08-18T08:56:14.561Z,3.60
2022-08-18T08:58:55.140Z,3.20
2022-08-18T09:01:43.921Z,3.08
2022-08-18T09:04:24.183Z,4.30
2022-08-18T09:07:18.612Z,4.65
2022-08-18T09:09:57.537Z,3.65
2022-08-18T09:12:30.124Z,3.38
2022-08-18T09:15:34.319Z,4.45
2022-08-18T09:18:09.151Z,3.63
2022-08-18T09:21:13.491Z,3.22
2022-08-18T09:23:51.530Z,6.50
2022-08-18T09:26:39.048Z,3.70
2022-08-18T09:29:47.116Z,4.18
2022-08-18T09:32:50.115Z,6.27
2022-08-18T09:35:40.262Z,3.35
2022-08-18T09:38:32.997Z,5.43
2022-08-18T09:41:29.471Z,3.40
2022-08-18T09:44:17.834Z,2.92
2022-08-18T09:46:50.912Z,7.10
2022-08-18T09:49:47.951Z,4.05
2022-08-18T09:52:25.361Z,3.03
2022-08-18T09:54:53.711Z,3.30
2022-08-18T09:57:25.877Z,3.63
2022-08-18T10:00:14.545Z,5.73
2022-08-18T10:02:48.616Z,7.40
2022-08-18T10:05:16.497Z,3.17
2022-08-18T10:07:48.784Z,2.65
2022-08-18T10:11:01.646Z,3.85
2022-08-18T10:16:57.671Z,4.97
2022-08-18T10:22:37.205Z,4.75
2022-08-18T10:25:22.251Z,3.65
2022-08-18T10:27:57.904Z,3.23
2022-08-18T10:30:57.123Z,2.92
2022-08-18T10:33:56.988Z,3.28
2022-08-18T10:36:42.100Z,3.78
2022-08-18T10:39:13.584Z,4.38
2022-08-18T10:41:58.608Z,4.83
2022-08-18T10:44:29.747Z,3.20
2022-08-18T10:47:00.291Z,3.85
2022-08-18T10:49:33.145Z,3.30
2022-08-18T10:52:15.996Z,5.13
2022-08-18T10:55:06.228Z,3.90
2022-08-18T10:57:37.113Z,4.63
2022-08-18T11:00:19.452Z,3.97
2022-08-18T11:03:40.038Z,2.83
2022-08-18T11:06:07.139Z,3.28
2022-08-18T11:08:48.365Z,2.83
2022-08-18T11:11:32.858Z,3.75
2022-08-18T11:14:32.086Z,2.50
2022-08-18T11:20:09.952Z,4.45
2022-08-18T11:22:39.437Z,3.70
2022-08-18T11:25:29.594Z,2.13
2022-08-18T11:27:56.972Z,2.88
2022-08-18T11:30:31.428Z,2.50
2022-08-18T11:33:02.599Z,3.45
2022-08-18T11:35:34.234Z,3.83
2022-08-18T11:38:05.626Z,3.63
2022-08-18T11:41:09.819Z,2.80
2022-08-18T11:43:41.793Z,3.30
2022-08-18T11:46:29.378Z,2.60
2022-08-18T11:49:01.504Z,3.23
2022-08-18T11:51:31.580Z,2.33
2022-08-18T11:54:00.158Z,3.60
2022-08-18T11:56:36.025Z,3.10
2022-08-18T11:59:25.643Z,2.45
2022-08-18T12:02:21.238Z,5.53
2022-08-18T12:04:56.926Z,5.78
2022-08-18T12:07:30.438Z,2.45
2022-08-18T12:10:25.886Z,2.00
2022-08-18T12:13:01.290Z,2.13
2022-08-18T12:15:46.648Z,2.73
2022-08-18T12:21:05.695Z,2.30
2022-08-18T12:23:44.459Z,3.03
2022-08-18T12:29:05.225Z,2.00
2022-08-18T12:31:42.409Z,1.95
2022-08-18T12:34:31.691Z,2.50
2022-08-18T12:37:01.173Z,4.13
2022-08-18T12:39:32.135Z,1.95
2022-08-18T12:41:59.527Z,3.00
2022-08-18T12:44:27.168Z,4.25
2022-08-18T12:46:56.627Z,2.15
2022-08-18T12:49:24.904Z,2.28
2022-08-18T12:51:55.574Z,2.20
2022-08-18T12:54:22.588Z,2.10
2022-08-18T12:56:55.940Z,3.28
2022-08-18T12:59:24.400Z,2.63
2022-08-18T13:01:52.000Z,2.20
2022-08-18T13:04:27.064Z,2.97
2022-08-18T13:07:00.443Z,2.50
2022-08-18T13:09:34.675Z,2.00
2022-08-18T13:12:14.796Z,4.95
2022-08-18T13:14:43.468Z,1.80
2022-08-18T13:17:15.320Z,2.67
2022-08-18T13:19:57.857Z,1.97
2022-08-18T13:22:32.152Z,1.92
2022-08-18T13:25:00.260Z,2.20
2022-08-18T13:27:32.977Z,4.38
2022-08-18T13:30:02.591Z,2.10
2022-08-18T13:32:34.141Z,2.67
2022-08-18T13:35:08.980Z,2.22
2022-08-18T13:37:41.467Z,3.05
2022-08-18T13:40:12.611Z,3.80
2022-08-18T13:42:51.110Z,5.63
2022-08-18T13:45:24.723Z,3.23
2022-08-18T13:47:52.720Z,3.92
2022-08-18T13:50:21.160Z,4.28
2022-08-18T13:53:01.095Z,7.05
2022-08-18T13:55:29.561Z,2.47
2022-08-18T13:57:57.042Z,6.03
2022-08-18T14:00:29.404Z,4.13
2022-08-18T14:02:59.061Z,2.90
2022-08-18T14:05:36.186Z,3.25
2022-08-18T14:08:12.578Z,3.70
2022-08-18T14:10:52.130Z,2.00
2022-08-18T14:13:20.567Z,3.15
2022-08-18T14:15:54.977Z,5.72
2022-08-18T14:18:29.209Z,1.90
2022-08-18T14:21:16.596Z,3.33
2022-08-18T14:24:05.913Z,2.43
2022-08-18T14:26:50.133Z,2.55
2022-08-18T14:29:47.452Z,3.60
2022-08-18T14:32:06.602Z,3.10
2022-08-18T14:34:33.197Z,1.90
2022-08-18T14:36:59.833Z,2.27
2022-08-18T14:39:28.063Z,2.22
2022-08-18T14:41:58.408Z,4.22
2022-08-18T14:44:31.804Z,2.97
2022-08-18T14:46:59.477Z,4.07
2022-08-18T14:49:29.166Z,3.00
2022-08-18T14:51:57.964Z,10.27
2022-08-18T14:54:28.322Z,2.50
2022-08-18T14:56:56.856Z,7.07
2022-08-18T14:59:25.064Z,2.63
2022-08-18T15:01:52.211Z,2.43
2022-08-18T15:04:20.015Z,5.20
2022-08-18T15:06:55.942Z,2.30
2022-08-18T15:09:23.438Z,3.88
2022-08-18T15:11:51.209Z,2.38
2022-08-18T15:14:20.308Z,3.87
2022-08-18T15:16:47.442Z,2.63
2022-08-18T15:19:14.071Z,2.00
2022-08-18T15:22:19.244Z,3.50
2022-08-18T15:25:06.309Z,2.83
2022-08-18T15:27:42.542Z,2.87
2022-08-18T15:30:19.597Z,3.92
2022-08-18T15:32:49.795Z,2.47
2022-08-18T15:35:17.169Z,2.67
2022-08-18T15:37:45.824Z,2.78
2022-08-18T15:40:30.105Z,2.57
2022-08-18T15:43:03.539Z,3.70
2022-08-18T15:45:35.691Z,2.15
2022-08-18T15:48:09.646Z,3.50
2022-08-18T15:50:39.253Z,2.30
2022-08-18T15:53:11.396Z,1.87
2022-08-18T15:55:39.996Z,1.80
2022-08-18T15:58:12.335Z,1.90
2022-08-18T16:00:48.411Z,2.38
2022-08-18T16:03:16.710Z,2.10
2022-08-18T16:05:53.248Z,2.17
2022-08-18T16:08:22.754Z,1.40
2022-08-18T16:10:49.983Z,1.63
2022-08-18T16:13:16.759Z,1.98
2022-08-18T16:15:46.903Z,2.97
2022-08-18T16:18:14.656Z,2.27
2022-08-18T16:20:43.796Z,2.20
2022-08-18T16:23:12.389Z,2.08
2022-08-18T16:25:45.363Z,2.00
2022-08-18T16:28:13.494Z,4.38
2022-08-18T16:30:43.887Z,2.20
2022-08-18T16:33:10.648Z,2.25
2022-08-18T16:35:37.649Z,2.05
2022-08-18T16:38:12.000Z,3.30
2022-08-18T16:40:40.373Z,2.75
2022-08-18T16:43:11.772Z,2.07
2022-08-18T16:45:40.694Z,2.08
2022-08-18T16:48:08.949Z,1.90
2022-08-18T16:50:37.792Z,2.42
2022-08-18T16:53:05.509Z,2.13
2022-08-18T16:55:32.337Z,6.00
2022-08-18T16:58:17.522Z,2.40
2022-08-18T17:01:02.625Z,2.40
2022-08-18T17:03:48.243Z,1.67
2022-08-18T17:06:18.423Z,3.05
2022-08-18T17:08:46.156Z,2.73
2022-08-18T17:11:17.671Z,1.92
2022-08-18T17:13:45.963Z,1.80
2022-08-18T17:16:13.713Z,1.35
2022-08-18T17:18:41.314Z,2.03
2022-08-18T17:21:11.116Z,2.83
2022-08-18T17:23:39.121Z,1.77
2022-08-18T17:26:09.326Z,1.75
2022-08-18T17:28:50.526Z,2.67
2022-08-18T17:31:24.404Z,2.88
2022-08-18T17:33:53.502Z,2.13
2022-08-18T17:36:28.129Z,2.55
2022-08-18T17:38:58.684Z,3.33
2022-08-18T17:41:25.515Z,1.98
2022-08-18T17:43:55.794Z,1.30
2022-08-18T17:46:29.747Z,2.57
2022-08-18T17:49:02.748Z,1.52
2022-08-18T17:51:43.364Z,1.55
2022-08-18T17:54:29.655Z,1.67
2022-08-18T17:57:01.793Z,1.63
2022-08-18T17:59:46.036Z,1.30
2022-08-18T18:02:29.559Z,1.30
2022-08-18T18:05:02.417Z,1.50
2022-08-18T18:07:28.892Z,4.47
2022-08-18T18:10:02.966Z,1.83
2022-08-18T18:12:32.944Z,1.43
2022-08-18T18:15:00.838Z,3.20
2022-08-18T18:17:31.128Z,1.52
2022-08-18T18:20:24.027Z,3.35
2022-08-18T18:22:52.377Z,2.28
2022-08-18T18:25:34.352Z,1.57
2022-08-18T18:28:01.742Z,2.30
2022-08-18T18:30:32.961Z,1.77
2022-08-18T18:33:04.667Z,1.67
2022-08-18T18:35:57.999Z,4.60
2022-08-18T18:38:31.956Z,1.60
2022-08-18T18:41:06.676Z,1.95
2022-08-18T18:43:33.099Z,1.58
2022-08-18T18:46:05.500Z,2.28
2022-08-18T18:48:52.684Z,1.63
2022-08-18T18:51:43.787Z,3.00
2022-08-18T18:54:19.267Z,1.30
2022-08-18T18:56:53.065Z,1.90
2022-08-18T18:59:26.567Z,5.45
2022-08-18T19:02:06.017Z,1.48
2022-08-18T19:05:09.539Z,3.10
2022-08-18T19:08:02.262Z,4.20
2022-08-18T19:10:56.880Z,7.65
2022-08-18T19:13:33.333Z,2.00
2022-08-18T19:16:23.333Z,2.17
2022-08-18T19:19:36.729Z,2.43
2022-08-18T19:22:05.210Z,1.98
2022-08-18T19:24:40.096Z,5.75
2022-08-18T19:27:17.242Z,4.15
2022-08-18T19:29:52.378Z,2.22
2022-08-18T19:32:24.764Z,3.03
2022-08-18T19:34:54.544Z,3.15
2022-08-18T19:38:01.866Z,2.63
2022-08-18T19:40:44.992Z,2.47
2022-08-18T19:43:27.729Z,2.47
2022-08-18T19:46:12.650Z,2.50
2022-08-18T19:48:46.909Z,2.83
2022-08-18T19:51:26.401Z,2.70
2022-08-18T19:54:20.817Z,4.22
2022-08-18T19:57:39.539Z,2.17
2022-08-18T20:00:18.204Z,2.70
2022-08-18T20:03:26.392Z,2.97
2022-08-18T20:06:34.811Z,2.00
2022-08-18T20:09:19.851Z,1.80
2022-08-18T20:12:07.102Z,2.70
2022-08-18T20:14:39.362Z,3.23
2022-08-18T20:17:16.860Z,4.05
2022-08-18T20:19:46.059Z,3.83
2022-08-18T20:22:24.832Z,2.25
2022-08-18T20:24:54.110Z,2.25
2022-08-18T20:27:44.524Z,5.53
2022-08-18T20:30:19.812Z,2.60
2022-08-18T20:33:15.326Z,4.05
2022-08-18T20:35:53.106Z,2.60
2022-08-18T20:38:34.332Z,6.03
2022-08-18T20:41:39.078Z,2.63
2022-08-18T20:44:29.321Z,2.75
2022-08-18T20:47:13.088Z,3.63
2022-08-18T20:50:09.069Z,4.32
2022-08-18T20:52:47.565Z,3.47
2022-08-18T20:55:59.455Z,3.33
2022-08-18T20:58:32.142Z,3.70
2022-08-18T21:01:00.287Z,2.55
2022-08-18T21:03:40.349Z,3.40
2022-08-18T21:06:08.138Z,3.53
2022-08-18T21:08:36.901Z,3.73
2022-08-18T21:11:09.020Z,2.72
2022-08-18T21:13:46.208Z,6.10
2022-08-18T21:16:37.656Z,3.35
2022-08-18T21:19:26.259Z,2.85
2022-08-18T21:21:57.274Z,3.50
2022-08-18T21:24:34.381Z,7.60
2022-08-18T21:27:30.808Z,2.47
2022-08-18T21:30:02.266Z,3.25
2022-08-18T21:32:32.613Z,2.67
2022-08-18T21:35:05.809Z,3.73
2022-08-18T21:37:34.857Z,3.08
2022-08-18T21:40:05.192Z,3.30
2022-08-18T21:42:42.002Z,6.65
2022-08-18T21:45:18.906Z,7.68
2022-08-18T21:47:52.461Z,3.93
2022-08-18T21:50:23.124Z,6.10
2022-08-18T21:52:55.838Z,13.73
2022-08-18T21:55:31.160Z,3.80
2022-08-18T21:58:17.913Z,3.95
2022-08-18T22:00:47.069Z,4.03
2022-08-18T22:03:21.220Z,4.88
2022-08-18T22:06:24.188Z,3.70
2022-08-18T22:08:59.085Z,3.80
2022-08-18T22:12:00.553Z,3.33
2022-08-18T22:14:36.105Z,3.77
2022-08-18T22:17:28.589Z,3.70
2022-08-18T22:19:55.548Z,5.75
2022-08-18T22:22:41.772Z,3.60
2022-08-18T22:25:11.455Z,3.90
2022-08-18T22:27:38.163Z,5.53
2022-08-18T22:30:05.540Z,3.20
2022-08-18T22:32:33.405Z,5.00
2022-08-18T22:35:00.017Z,3.78
2022-08-18T22:37:32.476Z,3.28
2022-08-18T22:40:10.375Z,3.87
2022-08-18T22:42:38.397Z,3.35
2022-08-18T22:45:09.436Z,4.22
2022-08-18T22:47:42.891Z,4.05
2022-08-18T22:50:11.759Z,6.90
2022-08-18T22:52:42.502Z,5.47
2022-08-18T22:55:11.745Z,3.67
2022-08-18T22:57:40.716Z,4.20
2022-08-18T23:00:14.633Z,3.60
2022-08-18T23:02:42.720Z,4.30
2022-08-18T23:05:11.025Z,3.67
2022-08-18T23:07:37.645Z,4.35
2022-08-18T23:10:08.247Z,4.78
2022-08-18T23:12:41.089Z,4.00
2022-08-18T23:15:14.190Z,3.60
2022-08-18T23:17:42.293Z,5.50
2022-08-18T23:20:17.933Z,4.15
2022-08-18T23:22:46.711Z,4.60
2022-08-18T23:25:14.123Z,4.25
2022-08-18T23:27:41.403Z,5.88
2022-08-18T23:30:08.629Z,4.63
2022-08-18T23:32:35.270Z,4.82
2022-08-18T23:35:02.483Z,6.03
2022-08-18T23:37:29.154Z,4.95
2022-08-18T23:39:55.886Z,4.38
2022-08-18T23:42:23.106Z,4.77
2022-08-18T23:44:51.110Z,5.03
2022-08-18T23:47:19.511Z,4.97
2022-08-18T23:49:46.402Z,4.60
2022-08-18T23:52:12.922Z,4.20
2022-08-18T23:54:39.577Z,5.10
2022-08-18T23:57:06.191Z,4.22
2022-08-18T23:59:32.846Z,3.95
